Time;durP1;ratioP1;P1;durP2;ratioP2;P2;SDS_P1;SDS_P2;PMS_P1;PMS_P2;Temp;Humidity;BMP_temperature;BMP_pressure;BME280_temperature;BME280_humidity;BME280_pressure;Samples;Min_cycle;Max_cycle;Signal;HPM_P1;HPM_P2
2023/11/06 00:01:01;;;;;;;2.97;1.70;;;;;;;;;;5024152;28;20057;-73
2023/11/06 00:03:27;;;;;;;2.33;1.90;;;;;;;;;;5023706;28;20030;-72
2023/11/06 00:05:54;;;;;;;2.15;1.63;;;;;;;;;;5023779;28;20071;-73
2023/11/06 00:08:19;;;;;;;2.72;1.70;;;9.70;99.90;;;;;;5006213;28;20032;-73
2023/11/06 00:10:46;;;;;;;3.65;1.65;;;9.60;99.90;;;;;;5006151;28;20057;-73
2023/11/06 00:13:12;;;;;;;2.78;1.70;;;9.60;99.90;;;;;;5023707;28;20328;-73
2023/11/06 00:15:38;;;;;;;2.97;1.80;;;;;;;;;;5023745;28;20030;-73
2023/11/06 00:18:04;;;;;;;1.90;1.35;;;;;;;;;;5023552;28;20322;-73
2023/11/06 00:20:30;;;;;;;3.60;1.67;;;;;;;;;;5005734;28;20330;-74
2023/11/06 00:22:56;;;;;;;1.98;1.45;;;;;;;;;;5005649;28;20057;-74
2023/11/06 00:25:22;;;;;;;2.58;1.75;;;9.50;99.90;;;;;;5023493;28;20022;-73
2023/11/06 00:27:47;;;;;;;2.88;2.10;;;9.70;99.90;;;;;;5005749;28;20021;-73
2023/11/06 00:30:13;;;;;;;3.50;2.47;;;10.20;99.90;;;;;;5023158;28;20121;-73
2023/11/06 00:32:42;;;;;;;4.00;2.42;;;9.70;99.90;;;;;;5022976;28;20038;-72
2023/11/06 00:35:09;;;;;;;6.78;2.63;;;9.60;99.90;;;;;;5005528;28;20018;-72
2023/11/06 00:37:35;;;;;;;5.13;2.50;;;;;;;;;;5021823;28;20033;-71
2023/11/06 00:40:03;;;;;;;4.22;2.60;;;;;;;;;;5022948;28;20242;-71
2023/11/06 00:42:29;;;;;;;4.55;2.17;;;;;;;;;;5023195;28;20026;-70
2023/11/06 00:44:55;;;;;;;4.45;2.40;;;9.80;99.90;;;;;;5005529;28;20026;-71
2023/11/06 00:47:22;;;;;;;5.65;2.53;;;;;;;;;;5023121;28;20029;-70
2023/11/06 00:49:48;;;;;;;7.85;3.90;;;9.80;99.90;;;;;;5023086;28;20052;-70
2023/11/06 00:52:13;;;;;;;5.97;2.80;;;9.80;99.90;;;;;;5005458;28;20049;-70
2023/11/06 00:54:40;;;;;;;4.30;2.42;;;;;;;;;;5005504;28;20206;-70
2023/11/06 00:57:06;;;;;;;5.88;2.20;;;;;;;;;;5022959;28;20052;-72
2023/11/06 00:59:32;;;;;;;5.90;2.38;;;9.80;99.90;;;;;;5022940;28;20097;-71
2023/11/06 01:01:58;;;;;;;5.40;2.45;;;9.70;99.90;;;;;;5021824;28;20018;-72
2023/11/06 01:04:23;;;;;;;3.08;1.98;;;9.60;99.90;;;;;;5022624;28;20029;-72
2023/11/06 01:06:52;;;;;;;3.10;2.10;;;;;;;;;;5004881;28;20030;-72
2023/11/06 01:09:18;;;;;;;3.38;1.88;;;;;;;;;;5022633;28;20093;-72
2023/11/06 01:11:49;;;;;;;2.78;1.67;;;9.60;99.90;;;;;;5004659;28;20030;-71
2023/11/06 01:14:16;;;;;;;3.53;1.67;;;9.70;99.90;;;;;;5022346;28;20026;-71
2023/11/06 01:16:42;;;;;;;2.63;1.30;;;9.70;99.90;;;;;;5022285;28;20030;-70
2023/11/06 01:19:08;;;;;;;2.85;1.30;;;9.70;99.90;;;;;;5022382;28;20018;-70
2023/11/06 01:21:34;;;;;;;1.65;1.10;;;9.50;99.90;;;;;;5022563;28;20333;-71
2023/11/06 01:24:00;;;;;;;3.83;1.50;;;;;;;;;;5022542;28;20029;-71
2023/11/06 01:26:26;;;;;;;2.17;1.67;;;;;;;;;;5022232;28;20090;-71
2023/11/06 01:28:52;;;;;;;1.60;1.13;;;;;;;;;;5022096;28;20317;-71
2023/11/06 01:31:18;;;;;;;2.15;1.52;;;9.90;99.90;;;;;;5022117;28;20040;-71
2023/11/06 01:33:44;;;;;;;2.97;2.30;;;9.60;99.90;;;;;;5022118;28;20049;-70
2023/11/06 01:36:10;;;;;;;4.47;1.80;;;9.80;99.90;;;;;;5022075;28;20055;-70
2023/11/06 01:38:36;;;;;;;2.30;1.35;;;;;;;;;;5022070;28;20033;-70
2023/11/06 01:41:03;;;;;;;2.03;1.60;;;9.90;99.90;;;;;;5021848;28;20071;-70
2023/11/06 01:43:29;;;;;;;1.77;1.15;;;10.00;99.90;;;;;;5021944;28;20474;-70
2023/11/06 01:45:55;;;;;;;1.98;0.85;;;;;;;;;;5021857;28;20038;-70
2023/11/06 01:48:24;;;;;;;0.70;0.70;;;10.00;99.90;;;;;;5021747;28;20026;-70
2023/11/06 01:50:50;;;;;;;;;;;10.20;98.00;;;;;;5022151;28;20022;-69
2023/11/06 01:53:19;;;;;;;1.67;0.70;;;10.40;96.20;;;;;;5021596;28;19912;-69
2023/11/06 01:55:46;;;;;;;0.60;0.55;;;10.80;96.00;;;;;;5021542;28;20306;-70
2023/11/06 01:58:13;;;;;;;1.17;0.55;;;10.60;96.90;;;;;;5021715;28;20028;-70
2023/11/06 02:00:40;;;;;;;1.05;0.55;;;10.50;95.00;;;;;;5020235;28;20088;-70
2023/11/06 02:03:09;;;;;;;1.02;0.82;;;10.70;93.10;;;;;;5021341;28;20044;-70
2023/11/06 02:05:36;;;;;;;1.08;0.65;;;10.80;92.40;;;;;;4987541;28;20349;-70
2023/11/06 02:08:02;;;;;;;1.17;0.82;;;11.00;92.40;;;;;;5021343;28;20029;-70
2023/11/06 02:10:28;;;;;;;1.85;0.63;;;10.90;90.60;;;;;;5021358;28;20030;-69
2023/11/06 02:12:54;;;;;;;2.58;0.57;;;;;;;;;;5021287;28;20116;-70
2023/11/06 02:15:21;;;;;;;1.40;0.38;;;;;;;;;;5003727;28;20332;-70
2023/11/06 02:17:46;;;;;;;1.15;0.63;;;11.20;95.20;;;;;;5021413;28;20018;-70
2023/11/06 02:20:12;;;;;;;2.00;0.50;;;11.20;88.20;;;;;;5021211;28;20242;-70
2023/11/06 02:22:42;;;;;;;1.63;0.73;;;11.30;87.10;;;;;;5021108;28;20112;-70
2023/11/06 02:25:09;;;;;;;0.82;0.40;;;11.20;87.00;;;;;;5020944;28;20081;-69
2023/11/06 02:27:35;;;;;;;0.50;0.50;;;11.30;94.40;;;;;;5019859;28;20026;-69
2023/11/06 02:30:01;;;;;;;2.28;0.85;;;11.40;93.80;;;;;;5019739;28;20341;-69
2023/11/06 02:32:28;;;;;;;1.27;0.38;;;;;;;;;;5021164;28;20262;-69
2023/11/06 02:34:54;;;;;;;1.42;0.47;;;;;;;;;;5020791;28;20021;-69
2023/11/06 02:37:20;;;;;;;0.63;0.38;;;;;;;;;;5020678;28;20029;-69
2023/11/06 02:39:46;;;;;;;1.50;0.50;;;;;;;;;;5020536;28;20029;-69
2023/11/06 02:42:11;;;;;;;2.30;0.57;;;11.30;92.30;;;;;;5003055;28;20024;-69
2023/11/06 02:44:38;;;;;;;1.45;0.52;;;;;;;;;;5020604;28;20108;-69
2023/11/06 02:47:04;;;;;;;0.90;0.40;;;;;;;;;;5020760;28;20075;-69
2023/11/06 02:49:30;;;;;;;0.32;0.32;;;;;;;;;;5020497;28;20026;-69
2023/11/06 02:51:56;;;;;;;1.65;0.38;;;11.30;91.80;;;;;;5002804;28;20044;-69
2023/11/06 02:54:25;;;;;;;1.05;0.50;;;11.20;92.50;;;;;;5020565;28;20018;-69
2023/11/06 02:56:51;;;;;;;0.47;0.30;;;11.20;92.50;;;;;;5020383;28;20309;-69
2023/11/06 02:59:18;;;;;;;1.65;0.40;;;11.10;92.40;;;;;;5020728;28;20048;-71
2023/11/06 03:01:43;;;;;;;1.90;0.38;;;11.10;84.20;;;;;;5020547;28;20068;-70
2023/11/06 03:04:13;;;;;;;0.77;0.50;;;11.10;81.60;;;;;;5020611;28;20041;-71
2023/11/06 03:06:40;;;;;;;3.58;0.50;;;11.10;81.60;;;;;;5020523;28;20030;-70
2023/11/06 03:09:06;;;;;;;0.60;0.43;;;11.10;81.50;;;;;;5020680;28;20085;-70
2023/11/06 03:11:32;;;;;;;1.27;0.50;;;11.00;91.90;;;;;;5020486;28;20034;-70
2023/11/06 03:13:58;;;;;;;0.28;0.22;;;11.00;91.80;;;;;;5020610;28;20029;-70
2023/11/06 03:16:24;;;;;;;0.30;0.30;;;;;;;;;;5020719;28;20228;-70
2023/11/06 03:18:50;;;;;;;0.93;0.40;;;;;;;;;;5020469;28;20037;-70
2023/11/06 03:21:16;;;;;;;0.68;0.40;;;11.10;83.70;;;;;;5020438;28;20030;-70
2023/11/06 03:23:41;;;;;;;1.25;0.40;;;11.10;91.70;;;;;;5020020;28;20045;-69
2023/11/06 03:26:07;;;;;;;3.72;0.47;;;10.90;91.70;;;;;;5020486;28;20088;-70
2023/11/06 03:28:34;;;;;;;0.20;0.20;;;;;;;;;;5020299;28;20013;-70
2023/11/06 03:31:00;;;;;;;3.38;0.50;;;;;;;;;;5020164;28;20033;-69
2023/11/06 03:33:26;;;;;;;1.85;0.40;;;;;;;;;;5020271;28;20396;-70
2023/11/06 03:35:52;;;;;;;2.55;0.40;;;10.90;88.10;;;;;;5002497;28;20094;-70
2023/11/06 03:38:18;;;;;;;1.23;0.40;;;;;;;;;;5020206;28;20017;-70
2023/11/06 03:40:44;;;;;;;0.77;0.30;;;;;;;;;;5020118;28;20404;-72
2023/11/06 03:43:11;;;;;;;1.23;0.52;;;;;;;;;;5002462;28;20052;-71
2023/11/06 03:45:37;;;;;;;1.85;0.30;;;;;;;;;;5020388;28;20064;-70
2023/11/06 03:48:03;;;;;;;1.83;0.40;;;10.70;91.80;;;;;;5020049;28;20018;-69
2023/11/06 03:50:30;;;;;;;1.65;0.38;;;;;;;;;;5002805;28;20058;-70
2023/11/06 03:52:56;;;;;;;1.00;0.40;;;;;;;;;;5019944;28;20042;-69
2023/11/06 03:55:21;;;;;;;4.15;0.57;;;10.80;92.00;;;;;;5020056;28;20239;-69
2023/11/06 03:57:47;;;;;;;0.47;0.30;;;10.80;92.20;;;;;;5020217;28;20045;-70
2023/11/06 04:00:13;;;;;;;2.67;0.55;;;10.90;85.80;;;;;;5019839;28;20048;-70
2023/11/06 04:02:39;;;;;;;1.52;0.50;;;10.70;92.10;;;;;;5020278;28;20025;-70
2023/11/06 04:05:06;;;;;;;0.93;0.60;;;10.70;81.70;;;;;;5019925;28;20093;-70
2023/11/06 04:07:32;;;;;;;2.25;0.30;;;;;;;;;;5020033;28;20030;-70
2023/11/06 04:09:57;;;;;;;1.10;0.40;;;10.70;92.40;;;;;;5019959;28;20057;-70
2023/11/06 04:12:23;;;;;;;1.08;0.35;;;;;;;;;;5019754;28;20033;-70
2023/11/06 04:14:49;;;;;;;0.40;0.40;;;10.60;92.70;;;;;;5019863;28;20017;-70
2023/11/06 04:17:15;;;;;;;0.77;0.40;;;;;;;;;;5019808;28;20030;-70
2023/11/06 04:19:41;;;;;;;0.77;0.30;;;;;;;;;;5019707;28;20028;-71
2023/11/06 04:22:08;;;;;;;0.68;0.30;;;;;;;;;;5019725;28;20025;-68
2023/11/06 04:24:34;;;;;;;5.47;0.60;;;10.90;91.60;;;;;;5002113;28;20022;-69
2023/11/06 04:26:59;;;;;;;1.17;0.57;;;10.60;92.30;;;;;;5019658;28;20018;-69
2023/11/06 04:29:26;;;;;;;1.40;0.73;;;;;;;;;;5019562;28;20053;-69
2023/11/06 04:31:52;;;;;;;2.50;0.50;;;;;;;;;;5019443;28;20104;-69
2023/11/06 04:34:18;;;;;;;2.53;0.40;;;;;;;;;;5019531;28;20045;-69
2023/11/06 04:36:43;;;;;;;1.85;0.80;;;10.60;85.30;;;;;;5021072;28;20076;-69
2023/11/06 04:39:12;;;;;;;1.23;0.50;;;10.90;91.70;;;;;;5023176;28;20391;-68
2023/11/06 04:41:38;;;;;;;0.85;0.40;;;10.70;91.60;;;;;;5022853;28;20081;-68
2023/11/06 04:44:05;;;;;;;1.23;0.40;;;10.80;80.20;;;;;;5021884;28;20125;-68
2023/11/06 04:46:31;;;;;;;4.53;0.50;;;;;;;;;;5022942;28;20037;-69
2023/11/06 04:48:57;;;;;;;1.27;0.50;;;;;;;;;;5022871;28;20026;-68
2023/11/06 04:51:23;;;;;;;0.43;0.30;;;;;;;;;;5005179;28;20029;-69
2023/11/06 04:53:49;;;;;;;1.50;0.50;;;10.90;91.80;;;;;;5022784;28;20018;-69
2023/11/06 04:56:15;;;;;;;1.48;0.50;;;;;;;;;;5022812;28;20028;-69
2023/11/06 04:58:42;;;;;;;1.35;0.25;;;10.70;80.10;;;;;;5023058;28;20268;-69
2023/11/06 05:01:08;;;;;;;1.88;0.50;;;;;;;;;;5005407;28;20029;-69
2023/11/06 05:03:34;;;;;;;1.50;0.40;;;10.50;91.70;;;;;;5022958;28;20026;-69
2023/11/06 05:06:00;;;;;;;1.42;0.40;;;;;;;;;;5023030;28;20088;-69
2023/11/06 05:08:29;;;;;;;4.95;0.45;;;;;;;;;;5022706;28;20026;-69
2023/11/06 05:10:56;;;;;;;0.65;0.40;;;10.40;79.90;;;;;;5022683;28;20072;-70
2023/11/06 05:13:22;;;;;;;2.08;0.55;;;10.60;79.80;;;;;;5022570;28;20202;-70
2023/11/06 05:15:48;;;;;;;0.65;0.20;;;;;;;;;;5022042;28;20032;-70
2023/11/06 05:18:14;;;;;;;1.13;0.40;;;10.70;91.40;;;;;;5022158;28;20026;-70
2023/11/06 05:20:43;;;;;;;1.00;0.40;;;10.60;79.50;;;;;;5021725;28;20184;-73
2023/11/06 05:23:09;;;;;;;2.03;0.73;;;10.50;91.30;;;;;;5021772;28;20128;-72
2023/11/06 05:25:36;;;;;;;1.73;0.40;;;10.40;82.40;;;;;;5022221;28;20030;-70
2023/11/06 05:28:03;;;;;;;2.15;0.40;;;;;;;;;;5022380;28;20108;-70
2023/11/06 05:30:29;;;;;;;0.65;0.60;;;;;;;;;;5022464;28;20032;-71
2023/11/06 05:32:55;;;;;;;5.40;0.68;;;;;;;;;;5004699;28;20036;-69
2023/11/06 05:35:21;;;;;;;1.23;0.65;;;10.10;92.00;;;;;;5022325;28;20014;-70
2023/11/06 05:37:47;;;;;;;1.90;0.50;;;10.40;86.30;;;;;;5022457;28;20026;-69
2023/11/06 05:40:13;;;;;;;0.90;0.50;;;;;;;;;;5022312;28;20767;-70
2023/11/06 05:42:39;;;;;;;1.95;0.65;;;9.80;84.30;;;;;;5022416;28;20038;-71
2023/11/06 05:45:07;;;;;;;5.32;0.68;;;10.00;84.80;;;;;;5022191;28;20069;-73
2023/11/06 05:47:34;;;;;;;2.70;0.82;;;;;;;;;;5021815;28;20042;-74
2023/11/06 05:50:00;;;;;;;1.63;0.50;;;;;;;;;;5022298;28;20096;-75
2023/11/06 05:52:26;;;;;;;3.58;0.70;;;9.70;94.80;;;;;;5004439;28;20053;-74
2023/11/06 05:54:52;;;;;;;1.50;0.82;;;9.60;90.70;;;;;;5022049;28;20322;-74
2023/11/06 05:57:18;;;;;;;1.48;0.55;;;;;;;;;;5004349;28;20034;-74
2023/11/06 05:59:44;;;;;;;4.40;0.95;;;;;;;;;;5004535;28;20136;-74
2023/11/06 06:02:10;;;;;;;1.70;0.80;;;;;;;;;;5004312;28;20092;-76
2023/11/06 06:04:38;;;;;;;0.55;0.50;;;9.70;96.30;;;;;;5021853;28;20018;-73
2023/11/06 06:07:05;;;;;;;0.93;0.45;;;9.60;90.30;;;;;;5021680;28;20522;-73
2023/11/06 06:09:32;;;;;;;1.05;0.68;;;10.00;96.90;;;;;;5020585;28;20048;-73
2023/11/06 06:11:58;;;;;;;2.42;0.65;;;;;;;;;;5004056;28;20253;-73
2023/11/06 06:14:24;;;;;;;0.85;0.68;;;;;;;;;;5021689;28;20125;-74
2023/11/06 06:16:50;;;;;;;2.00;0.70;;;;;;;;;;5021708;28;20026;-73
2023/11/06 06:19:17;;;;;;;3.05;0.70;;;9.50;91.70;;;;;;5021522;28;20025;-73
2023/11/06 06:21:43;;;;;;;2.08;0.85;;;;;;;;;;5021283;28;20326;-73
2023/11/06 06:24:09;;;;;;;2.35;0.50;;;;;;;;;;5021645;28;20034;-73
2023/11/06 06:26:36;;;;;;;2.95;0.75;;;9.50;91.90;;;;;;5021425;28;20325;-70
2023/11/06 06:29:03;;;;;;;3.03;1.10;;;9.50;98.20;;;;;;5021498;28;20018;-70
2023/11/06 06:31:29;;;;;;;1.80;0.90;;;;;;;;;;5021202;28;20041;-70
2023/11/06 06:33:55;;;;;;;2.05;1.63;;;;;;;;;;5021346;28;20033;-70
2023/11/06 06:36:23;;;;;;;2.63;1.25;;;;;;;;;;5003623;28;20049;-70
2023/11/06 06:38:49;;;;;;;6.03;2.00;;;9.80;95.40;;;;;;5003673;28;20037;-69
2023/11/06 06:41:15;;;;;;;7.03;2.70;;;;;;;;;;5021000;28;20053;-69
2023/11/06 06:43:41;;;;;;;3.25;1.20;;;9.50;98.40;;;;;;5021167;28;20030;-70
2023/11/06 06:46:06;;;;;;;12.52;3.67;;;9.90;98.50;;;;;;5021203;28;20055;-70
2023/11/06 06:48:32;;;;;;;5.00;1.60;;;;;;;;;;5020097;28;20037;-70
2023/11/06 06:50:58;;;;;;;4.18;1.42;;;9.60;98.30;;;;;;5002392;28;20060;-70
2023/11/06 06:53:24;;;;;;;6.43;1.38;;;;;;;;;;5019799;28;20253;-70
2023/11/06 06:55:50;;;;;;;2.45;1.20;;;;;;;;;;5021274;28;20029;-71
2023/11/06 06:58:16;;;;;;;2.72;0.85;;;10.00;95.80;;;;;;5019591;28;20049;-71
2023/11/06 07:00:43;;;;;;;0.93;0.80;;;;;;;;;;5020408;28;20060;-71
2023/11/06 07:03:09;;;;;;;3.70;0.90;;;10.20;94.30;;;;;;5020367;28;20087;-71
2023/11/06 07:05:35;;;;;;;2.63;1.25;;;;;;;;;;5001801;28;20060;-72
2023/11/06 07:08:01;;;;;;;1.55;0.70;;;10.20;94.40;;;;;;5019648;28;20329;-71
2023/11/06 07:10:27;;;;;;;1.20;0.80;;;10.50;97.30;;;;;;5017932;28;20021;-71
2023/11/06 07:12:55;;;;;;;0.73;0.63;;;;;;;;;;5019213;28;20040;-70
2023/11/06 07:15:25;;;;;;;2.60;0.68;;;;;;;;;;5019374;28;20022;-71
2023/11/06 07:17:52;;;;;;;7.65;0.80;;;10.90;91.20;;;;;;5001972;28;20038;-72
2023/11/06 07:20:18;;;;;;;3.35;0.90;;;11.00;95.90;;;;;;5020441;28;20028;-72
2023/11/06 07:22:44;;;;;;;3.35;0.80;;;;;;;;;;5020469;28;20092;-72
2023/11/06 07:25:10;;;;;;;2.95;1.30;;;;;;;;;;5018577;28;20103;-72
2023/11/06 07:27:37;;;;;;;3.22;1.00;;;;;;;;;;5002828;28;20030;-71
2023/11/06 07:30:03;;;;;;;2.25;0.77;;;11.30;94.00;;;;;;5020463;28;20089;-71
2023/11/06 07:32:29;;;;;;;3.70;0.70;;;11.70;93.80;;;;;;5020335;28;20022;-71
2023/11/06 07:34:55;;;;;;;1.75;0.77;;;;;;;;;;5020389;28;20025;-72
2023/11/06 07:37:21;;;;;;;1.35;0.63;;;;;;;;;;5020433;28;20033;-71
2023/11/06 07:39:47;;;;;;;2.03;0.88;;;12.10;92.00;;;;;;5020132;28;20037;-71
2023/11/06 07:42:13;;;;;;;1.67;0.70;;;;;;;;;;5020542;28;20064;-72
2023/11/06 07:44:39;;;;;;;1.95;0.80;;;;;;;;;;5025243;28;20018;-72
2023/11/06 07:47:06;;;;;;;4.53;1.45;;;;;;;;;;5029576;28;20288;-71
2023/11/06 07:49:32;;;;;;;11.52;1.23;;;;;;;;;;5003942;28;20036;-72
2023/11/06 07:52:00;;;;;;;3.53;1.30;;;12.40;88.70;;;;;;5035724;28;20053;-72
2023/11/06 07:54:26;;;;;;;3.38;1.10;;;;;;;;;;5039458;28;20021;-72
2023/11/06 07:56:53;;;;;;;3.35;0.80;;;;;;;;;;5039343;28;20097;-72
2023/11/06 07:59:18;;;;;;;1.17;0.70;;;12.80;86.20;;;;;;5021337;28;20013;-72
2023/11/06 08:01:44;;;;;;;2.95;1.02;;;13.00;85.20;;;;;;5020810;28;20309;-72
2023/11/06 08:04:10;;;;;;;2.40;0.85;;;;;;;;;;5038447;28;20081;-71
2023/11/06 08:06:36;;;;;;;3.00;1.17;;;;;;;;;;5038645;28;20033;-72
2023/11/06 08:09:02;;;;;;;3.10;1.27;;;;;;;;;;5038330;28;20040;-72
2023/11/06 08:11:28;;;;;;;2.10;1.00;;;13.40;78.30;;;;;;5041350;28;20033;-72
2023/11/06 08:13:54;;;;;;;1.58;1.20;;;;;;;;;;5042574;28;20222;-72
2023/11/06 08:16:20;;;;;;;2.65;0.98;;;;;;;;;;5043727;28;20100;-72
2023/11/06 08:18:45;;;;;;;3.20;0.90;;;14.00;80.00;;;;;;5043641;28;20203;-72
2023/11/06 08:21:12;;;;;;;2.42;1.23;;;;;;;;;;5043767;28;20052;-72
2023/11/06 08:23:38;;;;;;;3.22;0.98;;;;;;;;;;5043462;28;20021;-72
2023/11/06 08:26:04;;;;;;;2.05;0.82;;;14.10;69.90;;;;;;5043753;28;20209;-72
2023/11/06 08:28:30;;;;;;;3.40;1.08;;;14.00;80.30;;;;;;5043427;28;20338;-72
2023/11/06 08:30:56;;;;;;;2.13;0.60;;;14.20;80.50;;;;;;5043535;28;20036;-71
2023/11/06 08:33:22;;;;;;;3.85;0.68;;;;;;;;;;5043774;28;20041;-72
2023/11/06 08:35:48;;;;;;;0.95;0.47;;;;;;;;;;5043647;28;20021;-71
2023/11/06 08:38:14;;;;;;;0.82;0.47;;;;;;;;;;5043510;28;20029;-72
2023/11/06 08:40:40;;;;;;;2.28;0.60;;;;;;;;;;5043086;28;20041;-72
2023/11/06 08:43:06;;;;;;;2.28;0.70;;;14.70;76.70;;;;;;5043314;28;20017;-71
2023/11/06 08:45:33;;;;;;;2.17;0.40;;;14.80;76.40;;;;;;5042961;28;20064;-72
2023/11/06 08:47:59;;;;;;;3.72;0.63;;;;;;;;;;5043036;28;20029;-71
2023/11/06 08:50:25;;;;;;;1.52;0.60;;;;;;;;;;5034839;28;20045;-71
2023/11/06 08:52:51;;;;;;;2.70;0.40;;;;;;;;;;5025088;28;20210;-72
2023/11/06 08:55:17;;;;;;;1.73;0.60;;;14.60;72.40;;;;;;5032955;28;20240;-71
2023/11/06 08:57:44;;;;;;;3.38;1.05;;;;;;;;;;5042877;28;20092;-71
2023/11/06 09:00:11;;;;;;;1.75;0.43;;;;;;;;;;5040785;28;20029;-71
2023/11/06 09:02:36;;;;;;;1.67;0.50;;;15.00;71.70;;;;;;5042983;28;20017;-71
2023/11/06 09:05:03;;;;;;;0.73;0.50;;;;;;;;;;5042980;28;20217;-72
2023/11/06 09:07:29;;;;;;;2.85;0.77;;;15.10;63.40;;;;;;5025214;28;20317;-70
2023/11/06 09:09:55;;;;;;;1.02;0.50;;;;;;;;;;5042914;28;20017;-71
2023/11/06 09:12:20;;;;;;;1.17;0.60;;;15.50;67.80;;;;;;5042704;28;20109;-71
2023/11/06 09:14:46;;;;;;;1.10;0.52;;;15.50;70.10;;;;;;5042793;28;20021;-71
2023/11/06 09:17:12;;;;;;;2.50;0.57;;;;;;;;;;5042870;28;20321;-71
2023/11/06 09:19:38;;;;;;;2.78;1.08;;;15.70;69.10;;;;;;5042771;28;20037;-70
2023/11/06 09:22:04;;;;;;;2.38;0.55;;;;;;;;;;5042203;28;20025;-71
2023/11/06 09:24:30;;;;;;;1.42;0.70;;;15.60;68.20;;;;;;5024950;28;20602;-70
2023/11/06 09:26:57;;;;;;;2.65;0.50;;;15.80;69.20;;;;;;5042630;28;20298;-71
2023/11/06 09:29:23;;;;;;;1.08;0.40;;;15.60;68.50;;;;;;5042768;28;20024;-71
2023/11/06 09:31:48;;;;;;;1.10;0.60;;;16.00;65.40;;;;;;5042276;28;20294;-71
2023/11/06 09:34:14;;;;;;;1.30;0.32;;;16.10;55.70;;;;;;5042501;28;20056;-71
2023/11/06 09:36:40;;;;;;;3.90;0.60;;;;;;;;;;5040781;28;20036;-71
2023/11/06 09:39:09;;;;;;;1.10;0.50;;;16.20;66.50;;;;;;5042436;28;20010;-71
2023/11/06 09:41:36;;;;;;;0.60;0.32;;;16.00;56.00;;;;;;5024848;28;20061;-71
2023/11/06 09:44:04;;;;;;;1.35;0.35;;;15.50;66.90;;;;;;5042216;28;20250;-71
2023/11/06 09:46:30;;;;;;;0.45;0.20;;;15.50;56.60;;;;;;5042354;28;20040;-71
2023/11/06 09:49:14;;;;;;;10.85;1.50;;;15.20;57.20;;;;;;5024604;28;20085;-71
2023/11/06 09:51:41;;;;;;;3.83;0.60;;;15.00;57.50;;;;;;5042136;28;20095;-72
2023/11/06 09:54:10;;;;;;;2.58;1.05;;;14.80;69.30;;;;;;5024010;28;20332;-71
2023/11/06 09:56:42;;;;;;;0.77;0.38;;;14.60;70.00;;;;;;5041952;28;20021;-72
2023/11/06 09:59:08;;;;;;;0.85;0.47;;;14.70;70.60;;;;;;5024318;28;20329;-72
2023/11/06 10:01:34;;;;;;;3.63;0.60;;;;;;;;;;5041966;28;20375;-72
2023/11/06 10:04:01;;;;;;;4.38;0.45;;;14.40;58.90;;;;;;5041956;28;20056;-71
2023/11/06 10:06:27;;;;;;;2.13;0.73;;;;;;;;;;5041948;28;20024;-72
2023/11/06 10:08:53;;;;;;;1.17;0.70;;;14.30;73.00;;;;;;5024349;28;20049;-71
2023/11/06 10:11:23;;;;;;;1.08;0.52;;;14.60;74.10;;;;;;5041878;28;20029;-71
2023/11/06 10:13:58;;;;;;;3.25;0.75;;;14.50;74.70;;;;;;5024313;28;20036;-71
2023/11/06 10:16:25;;;;;;;5.28;1.10;;;;;;;;;;5024182;28;20326;-71
2023/11/06 10:19:10;;;;;;;2.47;0.75;;;14.00;62.20;;;;;;5041903;28;20033;-70
2023/11/06 10:21:36;;;;;;;2.45;0.50;;;14.20;72.50;;;;;;5041871;28;20360;-70
2023/11/06 10:24:05;;;;;;;4.15;0.60;;;14.00;75.80;;;;;;5041685;28;20047;-71
2023/11/06 10:26:31;;;;;;;1.30;0.68;;;14.10;63.30;;;;;;5041684;28;20064;-70
2023/11/06 10:29:10;;;;;;;2.83;0.73;;;14.00;77.10;;;;;;5041553;28;20021;-71
2023/11/06 10:31:37;;;;;;;1.77;0.60;;;14.00;64.40;;;;;;5041409;28;20057;-70
2023/11/06 10:34:04;;;;;;;0.47;0.40;;;13.70;78.70;;;;;;5040401;28;20021;-72
2023/11/06 10:36:30;;;;;;;0.60;0.50;;;;;;;;;;5041380;28;20030;-71
2023/11/06 10:39:09;;;;;;;1.98;0.50;;;13.30;66.30;;;;;;5041046;28;20021;-71
2023/11/06 10:41:38;;;;;;;0.93;0.43;;;;;;;;;;5041157;28;20057;-72
2023/11/06 10:44:04;;;;;;;;;;;13.30;65.70;;;;;;5021073;28;20068;-72
2023/11/06 10:46:32;;;;;;;0.43;0.30;;;13.40;66.00;;;;;;5021247;28;19976;-70
2023/11/06 10:49:20;;;;;;;2.47;0.50;;;13.00;65.50;;;;;;5021372;28;20025;-71
2023/11/06 10:51:47;;;;;;;1.92;0.55;;;12.50;65.60;;;;;;5011093;28;20049;-70
2023/11/06 10:54:14;;;;;;;4.05;0.90;;;;;;;;;;5021382;28;20013;-71
2023/11/06 10:56:41;;;;;;;2.47;0.60;;;;;;;;;;5025362;28;20029;-71
2023/11/06 10:59:08;;;;;;;3.58;0.80;;;13.30;67.30;;;;;;5022743;28;20022;-71
2023/11/06 11:01:36;;;;;;;1.63;0.88;;;13.40;68.50;;;;;;5003552;28;20331;-72
2023/11/06 11:04:04;;;;;;;1.27;0.50;;;13.40;70.30;;;;;;5020814;28;20047;-71
2023/11/06 11:06:32;;;;;;;5.22;2.15;;;13.50;72.00;;;;;;5038572;28;20562;-72
2023/11/06 11:08:59;;;;;;;1.10;0.60;;;13.20;85.20;;;;;;5040879;28;20059;-71
2023/11/06 11:11:27;;;;;;;2.50;1.20;;;13.30;86.30;;;;;;5039121;28;20079;-71
2023/11/06 11:13:54;;;;;;;1.53;0.50;;;13.50;87.10;;;;;;5029467;28;20014;-71
2023/11/06 11:16:40;;;;;;;1.63;0.70;;;13.90;87.30;;;;;;5040562;28;20254;-71
2023/11/06 11:19:21;;;;;;;2.88;0.60;;;14.00;83.70;;;;;;5022906;28;20037;-72
2023/11/06 11:22:08;;;;;;;1.50;0.80;;;14.40;74.10;;;;;;5026315;28;20034;-71
2023/11/06 11:24:45;;;;;;;1.60;0.65;;;14.50;85.10;;;;;;5019672;28;20385;-71
2023/11/06 11:27:14;;;;;;;3.47;0.70;;;14.70;72.30;;;;;;5020282;28;20044;-71
2023/11/06 11:29:54;;;;;;;3.17;1.10;;;14.50;81.50;;;;;;5020634;28;20018;-70
2023/11/06 11:32:49;;;;;;;2.58;0.82;;;14.90;70.00;;;;;;5020496;28;20038;-71
2023/11/06 11:35:19;;;;;;;3.40;1.02;;;;;;;;;;5019194;28;20033;-71
2023/11/06 11:37:58;;;;;;;1.48;0.95;;;15.80;79.60;;;;;;5019086;28;20657;-70
2023/11/06 11:40:42;;;;;;;1.75;0.80;;;15.60;70.70;;;;;;5019051;28;20061;-70
2023/11/06 11:43:23;;;;;;;2.53;1.20;;;16.00;65.50;;;;;;5018953;28;20034;-71
2023/11/06 11:45:48;;;;;;;2.20;0.93;;;15.90;67.40;;;;;;5018506;28;20033;-71
2023/11/06 11:48:15;;;;;;;1.75;0.80;;;16.20;70.10;;;;;;5018809;28;20018;-71
2023/11/06 11:50:41;;;;;;;1.20;0.70;;;16.50;74.50;;;;;;5018920;28;20025;-70
2023/11/06 11:53:08;;;;;;;2.25;1.08;;;;;;;;;;5020170;28;20040;-71
2023/11/06 11:55:38;;;;;;;2.25;0.85;;;16.90;73.40;;;;;;5020339;28;20130;-71
2023/11/06 11:58:11;;;;;;;2.90;1.05;;;17.00;71.60;;;;;;5020307;28;20040;-71
2023/11/06 12:00:37;;;;;;;4.47;1.10;;;;;;;;;;5020180;28;20037;-71
2023/11/06 12:03:08;;;;;;;4.55;1.08;;;16.70;64.10;;;;;;5020239;28;20033;-70
2023/11/06 12:05:36;;;;;;;1.77;1.00;;;16.90;64.90;;;;;;5020123;28;20022;-70
2023/11/06 12:08:16;;;;;;;2.53;1.10;;;16.60;69.80;;;;;;5020485;28;20049;-72
2023/11/06 12:10:47;;;;;;;2.58;1.27;;;17.00;58.90;;;;;;5020187;28;20018;-71
2023/11/06 12:13:17;;;;;;;3.22;1.10;;;17.20;58.60;;;;;;5020193;28;20061;-71
2023/11/06 12:15:44;;;;;;;2.45;1.00;;;17.40;57.80;;;;;;5020098;28;20040;-71
2023/11/06 12:18:12;;;;;;;2.47;1.27;;;17.70;67.00;;;;;;5020299;28;20085;-71
2023/11/06 12:20:38;;;;;;;2.40;1.00;;;;;;;;;;5020168;28;20085;-72
2023/11/06 12:23:04;;;;;;;4.38;1.17;;;18.50;64.00;;;;;;5002508;28;20049;-72
2023/11/06 12:25:33;;;;;;;1.83;1.27;;;18.20;58.60;;;;;;5018764;28;20026;-72
2023/11/06 12:28:10;;;;;;;5.28;1.60;;;19.10;58.60;;;;;;5002382;28;20427;-73
2023/11/06 12:30:40;;;;;;;2.15;1.42;;;20.70;55.60;;;;;;5020053;28;20242;-74
2023/11/06 12:33:17;;;;;;;2.65;1.27;;;22.40;52.00;;;;;;5019807;28;20065;-73
2023/11/06 12:35:44;;;;;;;3.90;1.58;;;23.90;47.40;;;;;;5020083;28;20018;-73
2023/11/06 12:38:10;;;;;;;3.63;1.43;;;25.70;45.20;;;;;;5002399;28;20226;-73
2023/11/06 12:40:43;;;;;;;2.78;1.10;;;27.60;41.50;;;;;;5019658;28;20283;-74
2023/11/06 12:43:15;;;;;;;2.38;1.00;;;29.90;37.20;;;;;;5019765;28;20088;-74
2023/11/06 12:45:43;;;;;;;1.45;0.90;;;32.20;33.60;;;;;;5019850;28;20025;-74
2023/11/06 12:48:33;;;;;;;3.47;1.15;;;34.40;31.10;;;;;;5018560;28;20330;-74
2023/11/06 12:51:09;;;;;;;2.13;1.33;;;37.00;27.80;;;;;;5019863;28;20030;-74
2023/11/06 12:53:39;;;;;;;1.53;1.20;;;37.00;27.80;;;;;;5019831;28;20033;-74
2023/11/06 12:56:06;;;;;;;1.67;1.40;;;37.70;27.30;;;;;;5019994;28;20038;-74
2023/11/06 12:58:38;;;;;;;2.17;1.02;;;38.50;27.30;;;;;;5022419;28;20010;-74
2023/11/06 13:01:20;;;;;;;0.50;0.50;;;38.80;26.10;;;;;;5023547;28;20030;-73
2023/11/06 13:03:48;;;;;;;2.00;0.70;;;38.90;26.20;;;;;;5023190;28;20038;-73
2023/11/06 13:06:17;;;;;;;0.50;0.50;;;35.50;26.80;;;;;;5023134;28;20104;-73
2023/11/06 13:08:43;;;;;;;1.33;1.23;;;35.40;26.90;;;;;;5023176;28;20032;-73
2023/11/06 13:11:09;;;;;;;2.10;0.90;;;;;;;;;;5023222;28;20611;-73
2023/11/06 13:13:35;;;;;;;1.40;0.98;;;29.60;32.70;;;;;;5023033;28;20404;-73
2023/11/06 13:16:03;;;;;;;2.15;1.17;;;30.10;30.60;;;;;;5023065;28;20030;-73
2023/11/06 13:18:30;;;;;;;2.35;1.00;;;31.10;31.00;;;;;;5023068;28;20018;-73
2023/11/06 13:21:03;;;;;;;1.17;0.90;;;32.50;29.90;;;;;;5023053;28;20059;-73
2023/11/06 13:23:29;;;;;;;1.75;1.30;;;34.40;28.00;;;;;;5022855;28;20057;-73
2023/11/06 13:25:56;;;;;;;1.45;0.80;;;35.00;27.90;;;;;;5005458;28;20353;-73
2023/11/06 13:28:25;;;;;;;2.20;0.98;;;35.00;28.20;;;;;;5021568;28;20332;-73
2023/11/06 13:30:50;;;;;;;1.58;0.82;;;33.70;29.30;;;;;;5022705;28;20025;-73